sensor_id;sensor_type;location;lat;lon;timestamp;pressure;altitude;pressure_sealevel;temperature;humidity
41703;BME280;861;48.808;9.006;2023-02-20T00:01:32;98219.53;;;9.57;76.34
41703;BME280;861;48.808;9.006;2023-02-20T00:03:59;98218.47;;;9.46;76.20
41703;BME280;861;48.808;9.006;2023-02-20T00:06:25;98210.94;;;9.55;75.88
41703;BME280;861;48.808;9.006;2023-02-20T00:08:51;98211.28;;;9.54;75.92
41703;BME280;861;48.808;9.006;2023-02-20T00:11:18;98212.66;;;9.32;77.01
41703;BME280;861;48.808;9.006;2023-02-20T00:13:49;98213.25;;;9.25;76.75
41703;BME280;861;48.808;9.006;2023-02-20T00:16:15;98206.59;;;9.23;76.97
41703;BME280;861;48.808;9.006;2023-02-20T00:18:44;98194.09;;;9.06;77.59
41703;BME280;861;48.808;9.006;2023-02-20T00:21:10;98196.47;;;9.08;77.30
41703;BME280;861;48.808;9.006;2023-02-20T00:23:37;98191.59;;;8.86;78.28
41703;BME280;861;48.808;9.006;2023-02-20T00:26:03;98197.03;;;8.86;78.54
41703;BME280;861;48.808;9.006;2023-02-20T00:28:32;98203.13;;;8.55;79.75
41703;BME280;861;48.808;9.006;2023-02-20T00:30:59;98206.00;;;8.35;80.33
41703;BME280;861;48.808;9.006;2023-02-20T00:33:25;98194.72;;;8.72;78.95
41703;BME280;861;48.808;9.006;2023-02-20T00:35:51;98204.75;;;8.84;78.28
41703;BME280;861;48.808;9.006;2023-02-20T00:38:17;98207.25;;;8.77;78.41
41703;BME280;861;48.808;9.006;2023-02-20T00:40:44;98217.75;;;8.78;78.40
41703;BME280;861;48.808;9.006;2023-02-20T00:43:10;98223.13;;;9.02;77.31
41703;BME280;861;48.808;9.006;2023-02-20T00:45:36;98240.13;;;8.87;77.53
41703;BME280;861;48.808;9.006;2023-02-20T00:48:03;98239.94;;;8.80;78.13
41703;BME280;861;48.808;9.006;2023-02-20T00:50:29;98241.66;;;8.73;78.17
41703;BME280;861;48.808;9.006;2023-02-20T00:52:55;98230.28;;;8.55;78.29
41703;BME280;861;48.808;9.006;2023-02-20T00:55:21;98222.41;;;8.38;79.69
41703;BME280;861;48.808;9.006;2023-02-20T00:57:48;98227.00;;;8.50;78.50
41703;BME280;861;48.808;9.006;2023-02-20T01:00:28;98231.06;;;8.56;79.00
41703;BME280;861;48.808;9.006;2023-02-20T01:02:55;98227.34;;;8.48;78.83
41703;BME280;861;48.808;9.006;2023-02-20T01:05:22;98220.34;;;8.11;80.26
41703;BME280;861;48.808;9.006;2023-02-20T01:07:48;98221.03;;;8.32;79.14
41703;BME280;861;48.808;9.006;2023-02-20T01:10:15;98227.22;;;8.45;77.97
41703;BME280;861;48.808;9.006;2023-02-20T01:12:41;98234.16;;;8.42;78.72
41703;BME280;861;48.808;9.006;2023-02-20T01:15:10;98233.00;;;8.43;77.92
41703;BME280;861;48.808;9.006;2023-02-20T01:17:38;98231.22;;;8.23;78.93
41703;BME280;861;48.808;9.006;2023-02-20T01:20:06;98222.72;;;8.37;78.66
41703;BME280;861;48.808;9.006;2023-02-20T01:22:33;98215.41;;;8.25;78.81
41703;BME280;861;48.808;9.006;2023-02-20T01:24:59;98212.75;;;8.17;78.60
41703;BME280;861;48.808;9.006;2023-02-20T01:27:25;98205.66;;;8.24;78.43
41703;BME280;861;48.808;9.006;2023-02-20T01:29:51;98204.75;;;8.08;78.97
41703;BME280;861;48.808;9.006;2023-02-20T01:32:18;98214.56;;;8.37;78.01
41703;BME280;861;48.808;9.006;2023-02-20T01:34:45;98215.13;;;8.18;78.83
41703;BME280;861;48.808;9.006;2023-02-20T01:37:14;98210.19;;;8.32;77.94
41703;BME280;861;48.808;9.006;2023-02-20T01:39:41;98203.75;;;8.25;77.68
41703;BME280;861;48.808;9.006;2023-02-20T01:42:21;98205.78;;;8.28;78.17
41703;BME280;861;48.808;9.006;2023-02-20T01:44:50;98212.53;;;8.34;76.83
41703;BME280;861;48.808;9.006;2023-02-20T01:47:23;98197.63;;;8.28;77.13
41703;BME280;861;48.808;9.006;2023-02-20T01:50:09;98194.91;;;8.16;77.44
41703;BME280;861;48.808;9.006;2023-02-20T01:52:39;98183.28;;;8.15;77.81
41703;BME280;861;48.808;9.006;2023-02-20T01:55:22;98183.72;;;8.17;77.66
41703;BME280;861;48.808;9.006;2023-02-20T01:58:24;98177.53;;;8.05;78.78
41703;BME280;861;48.808;9.006;2023-02-20T02:01:00;98172.78;;;7.90;78.74
41703;BME280;861;48.808;9.006;2023-02-20T02:03:36;98189.19;;;7.81;79.57
41703;BME280;861;48.808;9.006;2023-02-20T02:06:11;98179.00;;;7.78;79.94
41703;BME280;861;48.808;9.006;2023-02-20T02:08:43;98181.50;;;7.83;79.27
41703;BME280;861;48.808;9.006;2023-02-20T02:11:22;98186.44;;;7.69;79.16
41703;BME280;861;48.808;9.006;2023-02-20T02:13:50;98177.41;;;7.65;80.29
41703;BME280;861;48.808;9.006;2023-02-20T02:17:17;98176.28;;;7.66;80.53
41703;BME280;861;48.808;9.006;2023-02-20T02:20:16;98174.00;;;8.16;78.11
41703;BME280;861;48.808;9.006;2023-02-20T02:37:00;98169.47;;;8.44;77.29
41703;BME280;861;48.808;9.006;2023-02-20T02:40:13;98166.09;;;8.23;78.46
41703;BME280;861;48.808;9.006;2023-02-20T02:43:47;98167.22;;;8.34;77.99
41703;BME280;861;48.808;9.006;2023-02-20T02:46:51;98169.63;;;8.24;78.82
41703;BME280;861;48.808;9.006;2023-02-20T02:50:07;98172.44;;;8.03;79.45
41703;BME280;861;48.808;9.006;2023-02-20T02:52:40;98165.41;;;8.02;79.24
41703;BME280;861;48.808;9.006;2023-02-20T02:55:19;98158.31;;;8.10;78.72
41703;BME280;861;48.808;9.006;2023-02-20T02:57:50;98168.25;;;8.06;79.20
41703;BME280;861;48.808;9.006;2023-02-20T03:00:57;98158.88;;;8.03;80.04
41703;BME280;861;48.808;9.006;2023-02-20T03:03:37;98148.59;;;7.97;80.12
41703;BME280;861;48.808;9.006;2023-02-20T03:06:34;98157.28;;;8.02;79.50
41703;BME280;861;48.808;9.006;2023-02-20T03:09:15;98157.06;;;8.19;78.81
41703;BME280;861;48.808;9.006;2023-02-20T03:11:48;98155.56;;;8.22;78.47
41703;BME280;861;48.808;9.006;2023-02-20T03:15:20;98156.81;;;8.24;78.26
41703;BME280;861;48.808;9.006;2023-02-20T03:18:31;98163.81;;;8.37;78.18
41703;BME280;861;48.808;9.006;2023-02-20T03:21:20;98156.47;;;8.14;79.12
41703;BME280;861;48.808;9.006;2023-02-20T03:24:00;98157.50;;;8.09;78.53
41703;BME280;861;48.808;9.006;2023-02-20T03:26:36;98172.34;;;8.24;78.96
41703;BME280;861;48.808;9.006;2023-02-20T03:29:20;98156.81;;;8.12;78.56
41703;BME280;861;48.808;9.006;2023-02-20T03:32:12;98145.63;;;8.26;78.94
41703;BME280;861;48.808;9.006;2023-02-20T03:35:04;98148.69;;;8.12;78.65
41703;BME280;861;48.808;9.006;2023-02-20T03:37:54;98154.75;;;8.21;79.02
41703;BME280;861;48.808;9.006;2023-02-20T03:40:41;98148.84;;;8.55;77.87
41703;BME280;861;48.808;9.006;2023-02-20T03:43:33;98154.97;;;8.40;78.01
41703;BME280;861;48.808;9.006;2023-02-20T03:46:11;98151.06;;;8.14;78.63
41703;BME280;861;48.808;9.006;2023-02-20T03:49:01;98149.72;;;8.08;79.31
41703;BME280;861;48.808;9.006;2023-02-20T03:51:32;98154.94;;;7.89;80.09
41703;BME280;861;48.808;9.006;2023-02-20T03:54:17;98154.47;;;7.99;79.38
41703;BME280;861;48.808;9.006;2023-02-20T03:57:00;98149.63;;;7.92;79.67
41703;BME280;861;48.808;9.006;2023-02-20T03:59:56;98147.25;;;7.91;79.01
41703;BME280;861;48.808;9.006;2023-02-20T04:02:50;98140.91;;;7.99;78.85
41703;BME280;861;48.808;9.006;2023-02-20T04:05:28;98143.75;;;7.66;80.66
41703;BME280;861;48.808;9.006;2023-02-20T04:08:17;98149.19;;;7.78;79.85
41703;BME280;861;48.808;9.006;2023-02-20T04:11:03;98150.84;;;7.95;79.80
41703;BME280;861;48.808;9.006;2023-02-20T04:13:38;98146.13;;;7.79;79.78
41703;BME280;861;48.808;9.006;2023-02-20T04:16:08;98135.06;;;7.60;80.51
41703;BME280;861;48.808;9.006;2023-02-20T04:18:36;98129.84;;;7.67;80.02
41703;BME280;861;48.808;9.006;2023-02-20T04:21:20;98125.47;;;7.75;79.51
41703;BME280;861;48.808;9.006;2023-02-20T04:24:21;98116.31;;;7.79;79.16
41703;BME280;861;48.808;9.006;2023-02-20T04:26:55;98124.78;;;7.78;78.77
41703;BME280;861;48.808;9.006;2023-02-20T04:29:22;98125.69;;;7.70;80.05
41703;BME280;861;48.808;9.006;2023-02-20T04:31:48;98121.03;;;7.34;81.11
41703;BME280;861;48.808;9.006;2023-02-20T04:34:15;98117.78;;;7.41;81.65
41703;BME280;861;48.808;9.006;2023-02-20T04:36:41;98116.66;;;7.66;80.21
41703;BME280;861;48.808;9.006;2023-02-20T04:39:07;98116.97;;;7.64;79.43
41703;BME280;861;48.808;9.006;2023-02-20T04:41:34;98114.50;;;7.71;79.87
41703;BME280;861;48.808;9.006;2023-02-20T04:44:00;98117.00;;;7.76;79.55
41703;BME280;861;48.808;9.006;2023-02-20T04:46:45;98126.22;;;8.00;78.08
41703;BME280;861;48.808;9.006;2023-02-20T04:49:11;98130.06;;;7.99;77.22
41703;BME280;861;48.808;9.006;2023-02-20T04:51:37;98127.59;;;7.69;78.67
41703;BME280;861;48.808;9.006;2023-02-20T04:54:04;98144.56;;;7.66;79.13
41703;BME280;861;48.808;9.006;2023-02-20T04:56:30;98135.97;;;7.52;79.55
41703;BME280;861;48.808;9.006;2023-02-20T04:58:56;98140.72;;;7.55;79.54
41703;BME280;861;48.808;9.006;2023-02-20T05:01:22;98142.75;;;7.58;79.14
41703;BME280;861;48.808;9.006;2023-02-20T05:03:48;98136.75;;;7.89;78.13
41703;BME280;861;48.808;9.006;2023-02-20T05:06:14;98143.53;;;7.71;78.55
41703;BME280;861;48.808;9.006;2023-02-20T05:08:41;98145.34;;;7.67;78.49
41703;BME280;861;48.808;9.006;2023-02-20T05:11:07;98143.31;;;7.64;78.94
41703;BME280;861;48.808;9.006;2023-02-20T05:13:33;98149.41;;;7.61;78.43
41703;BME280;861;48.808;9.006;2023-02-20T05:15:59;98140.81;;;7.59;77.65
41703;BME280;861;48.808;9.006;2023-02-20T05:18:29;98136.16;;;7.23;78.54
41703;BME280;861;48.808;9.006;2023-02-20T05:20:56;98141.75;;;7.06;79.77
41703;BME280;861;48.808;9.006;2023-02-20T05:23:42;98137.72;;;7.12;79.81
41703;BME280;861;48.808;9.006;2023-02-20T05:26:19;98126.44;;;7.10;79.32
41703;BME280;861;48.808;9.006;2023-02-20T05:28:47;98127.25;;;7.23;79.52
41703;BME280;861;48.808;9.006;2023-02-20T05:31:13;98130.63;;;7.20;78.72
41703;BME280;861;48.808;9.006;2023-02-20T05:33:39;98134.25;;;7.24;79.23
41703;BME280;861;48.808;9.006;2023-02-20T05:36:06;98132.28;;;7.12;79.45
41703;BME280;861;48.808;9.006;2023-02-20T05:38:33;98126.03;;;6.88;81.25
41703;BME280;861;48.808;9.006;2023-02-20T05:40:59;98127.78;;;6.72;81.00
41703;BME280;861;48.808;9.006;2023-02-20T05:43:25;98120.38;;;6.48;82.16
41703;BME280;861;48.808;9.006;2023-02-20T05:45:51;98126.75;;;6.64;82.43
41703;BME280;861;48.808;9.006;2023-02-20T05:48:17;98130.09;;;6.82;81.13
41703;BME280;861;48.808;9.006;2023-02-20T05:50:43;98126.22;;;6.71;82.21
41703;BME280;861;48.808;9.006;2023-02-20T05:53:09;98126.09;;;6.67;82.05
41703;BME280;861;48.808;9.006;2023-02-20T05:55:36;98129.50;;;6.76;81.53
41703;BME280;861;48.808;9.006;2023-02-20T05:58:02;98128.69;;;7.08;79.75
41703;BME280;861;48.808;9.006;2023-02-20T06:00:28;98130.41;;;7.25;77.92
41703;BME280;861;48.808;9.006;2023-02-20T06:02:54;98125.09;;;7.28;77.06
41703;BME280;861;48.808;9.006;2023-02-20T06:05:20;98124.28;;;7.04;79.18
41703;BME280;861;48.808;9.006;2023-02-20T06:07:46;98124.63;;;7.14;78.79
41703;BME280;861;48.808;9.006;2023-02-20T06:10:17;98135.94;;;7.16;77.52
41703;BME280;861;48.808;9.006;2023-02-20T06:12:44;98134.13;;;7.20;77.14
41703;BME280;861;48.808;9.006;2023-02-20T06:15:10;98135.84;;;6.80;78.96
41703;BME280;861;48.808;9.006;2023-02-20T06:17:36;98134.22;;;7.12;78.69
41703;BME280;861;48.808;9.006;2023-02-20T06:20:03;98137.56;;;6.97;79.14
41703;BME280;861;48.808;9.006;2023-02-20T06:22:29;98134.56;;;6.78;79.82
41703;BME280;861;48.808;9.006;2023-02-20T06:24:55;98134.13;;;6.76;81.13
41703;BME280;861;48.808;9.006;2023-02-20T06:27:22;98142.44;;;7.03;79.89
41703;BME280;861;48.808;9.006;2023-02-20T06:29:48;98136.34;;;6.94;79.07
41703;BME280;861;48.808;9.006;2023-02-20T06:32:16;98136.13;;;6.99;78.87
41703;BME280;861;48.808;9.006;2023-02-20T06:34:44;98136.78;;;6.96;79.62
41703;BME280;861;48.808;9.006;2023-02-20T06:37:10;98135.78;;;7.01;77.85
41703;BME280;861;48.808;9.006;2023-02-20T06:39:37;98142.97;;;6.97;78.58
41703;BME280;861;48.808;9.006;2023-02-20T06:42:05;98145.84;;;7.12;77.96
41703;BME280;861;48.808;9.006;2023-02-20T06:44:33;98161.78;;;7.26;77.02
41703;BME280;861;48.808;9.006;2023-02-20T06:46:59;98149.72;;;7.35;76.48
41703;BME280;861;48.808;9.006;2023-02-20T06:49:26;98160.09;;;7.33;76.44
41703;BME280;861;48.808;9.006;2023-02-20T06:51:54;98153.88;;;7.21;76.66
41703;BME280;861;48.808;9.006;2023-02-20T06:54:20;98163.91;;;7.20;76.42
41703;BME280;861;48.808;9.006;2023-02-20T06:56:47;98159.53;;;7.28;76.32
41703;BME280;861;48.808;9.006;2023-02-20T06:59:14;98158.97;;;7.22;77.11
41703;BME280;861;48.808;9.006;2023-02-20T07:01:42;98164.78;;;7.12;77.11
41703;BME280;861;48.808;9.006;2023-02-20T07:04:22;98156.13;;;7.19;76.56
41703;BME280;861;48.808;9.006;2023-02-20T07:06:49;98153.88;;;6.56;79.49
41703;BME280;861;48.808;9.006;2023-02-20T07:09:16;98152.66;;;6.53;81.13
41703;BME280;861;48.808;9.006;2023-02-20T07:11:43;98162.28;;;6.42;82.18
41703;BME280;861;48.808;9.006;2023-02-20T07:14:09;98159.19;;;6.32;82.78
41703;BME280;861;48.808;9.006;2023-02-20T07:16:35;98152.03;;;6.68;81.08
41703;BME280;861;48.808;9.006;2023-02-20T07:19:01;98157.56;;;6.72;81.46
41703;BME280;861;48.808;9.006;2023-02-20T07:21:28;98157.72;;;6.87;81.61
41703;BME280;861;48.808;9.006;2023-02-20T07:23:54;98166.44;;;6.93;81.27
41703;BME280;861;48.808;9.006;2023-02-20T07:26:26;98170.53;;;7.11;80.00
41703;BME280;861;48.808;9.006;2023-02-20T07:28:56;98165.25;;;7.02;81.21
41703;BME280;861;48.808;9.006;2023-02-20T07:31:24;98166.84;;;7.15;80.42
41703;BME280;861;48.808;9.006;2023-02-20T07:33:51;98174.06;;;7.23;79.54
41703;BME280;861;48.808;9.006;2023-02-20T07:36:18;98175.94;;;7.43;79.32
41703;BME280;861;48.808;9.006;2023-02-20T07:38:57;98163.31;;;7.71;77.77
41703;BME280;861;48.808;9.006;2023-02-20T07:41:29;98180.22;;;7.56;79.20
41703;BME280;861;48.808;9.006;2023-02-20T07:44:03;98175.59;;;7.57;78.37
41703;BME280;861;48.808;9.006;2023-02-20T07:46:29;98173.56;;;7.66;78.33
41703;BME280;861;48.808;9.006;2023-02-20T07:49:02;98167.16;;;7.70;78.42
41703;BME280;861;48.808;9.006;2023-02-20T07:51:31;98166.25;;;7.54;79.31
41703;BME280;861;48.808;9.006;2023-02-20T07:53:57;98168.84;;;7.75;78.08
41703;BME280;861;48.808;9.006;2023-02-20T07:56:24;98163.66;;;7.94;77.87
41703;BME280;861;48.808;9.006;2023-02-20T07:58:51;98171.03;;;8.21;75.93
41703;BME280;861;48.808;9.006;2023-02-20T08:01:18;98162.84;;;7.94;77.45
41703;BME280;861;48.808;9.006;2023-02-20T08:03:45;98173.00;;;7.97;76.94
41703;BME280;861;48.808;9.006;2023-02-20T08:06:15;98169.16;;;8.10;76.45
41703;BME280;861;48.808;9.006;2023-02-20T08:08:48;98166.09;;;8.11;76.62
41703;BME280;861;48.808;9.006;2023-02-20T08:11:21;98162.59;;;8.35;76.64
41703;BME280;861;48.808;9.006;2023-02-20T08:13:48;98163.22;;;8.44;75.53
41703;BME280;861;48.808;9.006;2023-02-20T08:16:15;98149.03;;;8.23;76.62
41703;BME280;861;48.808;9.006;2023-02-20T08:18:42;98148.34;;;8.26;77.21
41703;BME280;861;48.808;9.006;2023-02-20T08:21:08;98139.84;;;8.39;76.42
41703;BME280;861;48.808;9.006;2023-02-20T08:23:34;98150.53;;;8.60;76.59
41703;BME280;861;48.808;9.006;2023-02-20T08:26:04;98142.06;;;8.77;75.21
41703;BME280;861;48.808;9.006;2023-02-20T08:28:30;98145.25;;;8.79;75.64
41703;BME280;861;48.808;9.006;2023-02-20T08:30:57;98144.09;;;9.07;74.09
41703;BME280;861;48.808;9.006;2023-02-20T08:33:23;98133.59;;;9.37;73.21
41703;BME280;861;48.808;9.006;2023-02-20T08:35:49;98130.16;;;9.09;74.84
41703;BME280;861;48.808;9.006;2023-02-20T08:38:38;98146.63;;;9.31;72.46
41703;BME280;861;48.808;9.006;2023-02-20T08:41:09;98139.63;;;9.62;71.16
41703;BME280;861;48.808;9.006;2023-02-20T08:43:39;98137.34;;;9.64;70.88
41703;BME280;861;48.808;9.006;2023-02-20T08:46:09;98139.72;;;9.65;71.27
41703;BME280;861;48.808;9.006;2023-02-20T08:48:36;98130.69;;;9.61;71.51
41703;BME280;861;48.808;9.006;2023-02-20T08:51:05;98131.53;;;9.81;70.05
41703;BME280;861;48.808;9.006;2023-02-20T08:53:33;98138.91;;;9.80;70.30
41703;BME280;861;48.808;9.006;2023-02-20T08:56:00;98136.44;;;9.91;70.71
41703;BME280;861;48.808;9.006;2023-02-20T08:58:26;98139.88;;;9.88;70.92
41703;BME280;861;48.808;9.006;2023-02-20T09:00:53;98140.31;;;9.74;71.01
41703;BME280;861;48.808;9.006;2023-02-20T09:03:19;98130.38;;;10.13;69.92
41703;BME280;861;48.808;9.006;2023-02-20T09:05:45;98131.81;;;10.45;68.91
41703;BME280;861;48.808;9.006;2023-02-20T09:08:11;98122.94;;;10.48;69.42
41703;BME280;861;48.808;9.006;2023-02-20T09:10:38;98124.28;;;10.38;67.34
41703;BME280;861;48.808;9.006;2023-02-20T09:13:04;98124.13;;;10.12;68.70
41703;BME280;861;48.808;9.006;2023-02-20T09:15:30;98110.19;;;10.52;68.00
41703;BME280;861;48.808;9.006;2023-02-20T09:18:00;98115.41;;;10.60;67.25
41703;BME280;861;48.808;9.006;2023-02-20T09:20:26;98117.75;;;10.81;67.23
41703;BME280;861;48.808;9.006;2023-02-20T09:22:58;98116.41;;;10.91;66.46
41703;BME280;861;48.808;9.006;2023-02-20T09:25:25;98104.66;;;10.67;65.64
41703;BME280;861;48.808;9.006;2023-02-20T09:27:52;98109.38;;;10.90;65.72
41703;BME280;861;48.808;9.006;2023-02-20T09:30:20;98106.88;;;11.23;63.99
41703;BME280;861;48.808;9.006;2023-02-20T09:32:48;98124.59;;;11.13;65.63
41703;BME280;861;48.808;9.006;2023-02-20T09:35:28;98097.44;;;11.39;65.25
41703;BME280;861;48.808;9.006;2023-02-20T09:37:55;98102.75;;;11.55;64.29
41703;BME280;861;48.808;9.006;2023-02-20T09:40:28;98098.50;;;11.35;64.96
41703;BME280;861;48.808;9.006;2023-02-20T09:46:16;98101.03;;;11.69;64.54
41703;BME280;861;48.808;9.006;2023-02-20T09:49:02;98098.91;;;12.08;63.51
41703;BME280;861;48.808;9.006;2023-02-20T09:51:58;98096.06;;;11.75;64.00
41703;BME280;861;48.808;9.006;2023-02-20T09:54:36;98090.09;;;12.18;60.92
41703;BME280;861;48.808;9.006;2023-02-20T09:57:21;98088.09;;;11.89;62.66
41703;BME280;861;48.808;9.006;2023-02-20T10:00:29;98097.47;;;11.91;63.05
41703;BME280;861;48.808;9.006;2023-02-20T10:03:25;98081.28;;;11.53;63.03
41703;BME280;861;48.808;9.006;2023-02-20T10:06:18;98085.88;;;11.98;61.59
41703;BME280;861;48.808;9.006;2023-02-20T10:08:52;98074.81;;;11.87;62.82
41703;BME280;861;48.808;9.006;2023-02-20T10:11:59;98066.44;;;12.32;61.58
41703;BME280;861;48.808;9.006;2023-02-20T10:18:41;98064.53;;;12.66;61.13
41703;BME280;861;48.808;9.006;2023-02-20T10:25:30;98057.59;;;12.43;59.97
41703;BME280;861;48.808;9.006;2023-02-20T10:28:18;98065.41;;;12.77;59.32
41703;BME280;861;48.808;9.006;2023-02-20T10:31:41;98066.03;;;12.97;59.33
41703;BME280;861;48.808;9.006;2023-02-20T10:34:30;98063.63;;;12.95;58.88
41703;BME280;861;48.808;9.006;2023-02-20T10:37:18;98061.72;;;13.36;58.32
41703;BME280;861;48.808;9.006;2023-02-20T10:43:00;98057.19;;;13.57;56.40
41703;BME280;861;48.808;9.006;2023-02-20T10:45:53;98060.16;;;13.89;55.51
41703;BME280;861;48.808;9.006;2023-02-20T10:48:33;98053.31;;;13.62;56.92
41703;BME280;861;48.808;9.006;2023-02-20T10:51:26;98048.78;;;13.80;56.65
41703;BME280;861;48.808;9.006;2023-02-20T10:54:17;98047.69;;;13.99;56.27
41703;BME280;861;48.808;9.006;2023-02-20T10:57:17;98032.66;;;14.36;55.82
41703;BME280;861;48.808;9.006;2023-02-20T11:00:12;98040.56;;;14.66;55.29
41703;BME280;861;48.808;9.006;2023-02-20T11:03:00;98037.50;;;14.85;54.23
41703;BME280;861;48.808;9.006;2023-02-20T11:05:45;98038.69;;;14.84;53.93
41703;BME280;861;48.808;9.006;2023-02-20T11:08:14;98034.34;;;14.76;53.42
41703;BME280;861;48.808;9.006;2023-02-20T11:10:57;98035.13;;;14.73;53.88
41703;BME280;861;48.808;9.006;2023-02-20T11:13:25;98036.69;;;14.74;53.20
41703;BME280;861;48.808;9.006;2023-02-20T11:15:56;98035.53;;;14.82;53.98
41703;BME280;861;48.808;9.006;2023-02-20T11:18:38;98026.97;;;15.18;52.15
41703;BME280;861;48.808;9.006;2023-02-20T11:21:05;98023.03;;;15.02;53.08
41703;BME280;861;48.808;9.006;2023-02-20T11:23:42;98018.34;;;15.16;53.93
41703;BME280;861;48.808;9.006;2023-02-20T11:26:28;98021.88;;;15.17;51.97
41703;BME280;861;48.808;9.006;2023-02-20T11:29:17;98013.22;;;15.75;50.76
41703;BME280;861;48.808;9.006;2023-02-20T11:31:45;98001.53;;;15.39;51.53
41703;BME280;861;48.808;9.006;2023-02-20T11:34:24;98006.56;;;15.65;51.74
41703;BME280;861;48.808;9.006;2023-02-20T11:37:04;97997.47;;;16.00;50.17
41703;BME280;861;48.808;9.006;2023-02-20T11:39:34;97989.97;;;16.18;50.09
41703;BME280;861;48.808;9.006;2023-02-20T11:42:15;97994.28;;;16.15;49.70
41703;BME280;861;48.808;9.006;2023-02-20T11:44:44;97995.50;;;16.04;49.87
41703;BME280;861;48.808;9.006;2023-02-20T11:47:28;97986.59;;;15.65;50.84
41703;BME280;861;48.808;9.006;2023-02-20T11:50:19;97980.25;;;15.89;50.50
41703;BME280;861;48.808;9.006;2023-02-20T11:53:03;97969.13;;;16.24;49.02
41703;BME280;861;48.808;9.006;2023-02-20T11:55:33;97971.13;;;16.09;50.20
41703;BME280;861;48.808;9.006;2023-02-20T11:58:01;97965.28;;;16.00;50.39
41703;BME280;861;48.808;9.006;2023-02-20T12:00:45;97963.38;;;16.76;48.48
41703;BME280;861;48.808;9.006;2023-02-20T12:03:33;97953.97;;;17.22;47.55
41703;BME280;861;48.808;9.006;2023-02-20T12:09:01;97942.47;;;17.30;48.53
41703;BME280;861;48.808;9.006;2023-02-20T12:11:30;97940.03;;;16.99;46.96
41703;BME280;861;48.808;9.006;2023-02-20T12:13:59;97938.31;;;17.12;47.27
41703;BME280;861;48.808;9.006;2023-02-20T12:19:53;97929.44;;;17.38;46.93
41703;BME280;861;48.808;9.006;2023-02-20T12:22:45;97924.97;;;17.54;46.03
41703;BME280;861;48.808;9.006;2023-02-20T12:44:48;97896.69;;;18.48;40.68
41703;BME280;861;48.808;9.006;2023-02-20T12:47:44;97883.06;;;18.03;41.98
41703;BME280;861;48.808;9.006;2023-02-20T12:50:39;97884.19;;;18.40;39.75
41703;BME280;861;48.808;9.006;2023-02-20T12:57:05;97864.63;;;18.27;40.92
41703;BME280;861;48.808;9.006;2023-02-20T12:59:53;97869.88;;;18.48;40.60
41703;BME280;861;48.808;9.006;2023-02-20T13:02:50;97861.56;;;18.21;40.65
41703;BME280;861;48.808;9.006;2023-02-20T13:05:27;97846.69;;;18.42;41.18
41703;BME280;861;48.808;9.006;2023-02-20T13:08:15;97842.97;;;18.56;39.53
41703;BME280;861;48.808;9.006;2023-02-20T13:11:09;97842.03;;;18.66;39.50
41703;BME280;861;48.808;9.006;2023-02-20T13:17:17;97830.25;;;18.62;38.99
41703;BME280;861;48.808;9.006;2023-02-20T13:20:29;97819.28;;;18.81;38.58
41703;BME280;861;48.808;9.006;2023-02-20T13:23:27;97805.78;;;18.87;37.83
41703;BME280;861;48.808;9.006;2023-02-20T13:25:57;97800.47;;;18.96;39.10
41703;BME280;861;48.808;9.006;2023-02-20T13:28:46;97795.13;;;19.31;38.15
41703;BME280;861;48.808;9.006;2023-02-20T13:36:44;97773.78;;;19.51;37.18
41703;BME280;861;48.808;9.006;2023-02-20T13:52:41;97774.81;;;19.18;35.78
41703;BME280;861;48.808;9.006;2023-02-20T13:57:54;97789.88;;;19.56;34.97
41703;BME280;861;48.808;9.006;2023-02-20T14:03:31;97771.56;;;19.23;34.03
41703;BME280;861;48.808;9.006;2023-02-20T14:06:18;97769.28;;;18.99;33.52
41703;BME280;861;48.808;9.006;2023-02-20T14:08:48;97770.94;;;18.73;34.92
41703;BME280;861;48.808;9.006;2023-02-20T14:11:38;97772.25;;;18.65;35.01
41703;BME280;861;48.808;9.006;2023-02-20T14:14:31;97779.03;;;18.61;34.94
41703;BME280;861;48.808;9.006;2023-02-20T14:17:22;97767.81;;;18.71;35.17
41703;BME280;861;48.808;9.006;2023-02-20T14:19:59;97747.00;;;18.67;35.03
41703;BME280;861;48.808;9.006;2023-02-20T14:22:32;97749.34;;;18.68;36.83
41703;BME280;861;48.808;9.006;2023-02-20T14:27:43;97745.13;;;18.83;35.80
41703;BME280;861;48.808;9.006;2023-02-20T14:30:22;97774.63;;;18.86;36.56
41703;BME280;861;48.808;9.006;2023-02-20T14:32:55;97755.56;;;18.72;37.10
41703;BME280;861;48.808;9.006;2023-02-20T14:36:26;97718.66;;;18.86;36.08
41703;BME280;861;48.808;9.006;2023-02-20T14:39:43;97733.38;;;18.79;36.80
41703;BME280;861;48.808;9.006;2023-02-20T14:42:23;97734.09;;;19.03;36.73
41703;BME280;861;48.808;9.006;2023-02-20T14:45:06;97721.44;;;19.05;37.26
41703;BME280;861;48.808;9.006;2023-02-20T14:47:50;97713.22;;;19.21;34.96
41703;BME280;861;48.808;9.006;2023-02-20T14:50:32;97733.69;;;19.04;33.62
41703;BME280;861;48.808;9.006;2023-02-20T14:55:43;97702.63;;;18.58;34.96
41703;BME280;861;48.808;9.006;2023-02-20T14:58:22;97723.34;;;18.89;34.25
41703;BME280;861;48.808;9.006;2023-02-20T15:00:49;97701.00;;;18.60;34.09
41703;BME280;861;48.808;9.006;2023-02-20T15:03:29;97709.28;;;18.60;35.08
41703;BME280;861;48.808;9.006;2023-02-20T15:06:03;97711.41;;;18.72;34.74
41703;BME280;861;48.808;9.006;2023-02-20T15:08:35;97712.94;;;18.96;33.97
41703;BME280;861;48.808;9.006;2023-02-20T15:11:15;97723.25;;;18.73;34.99
41703;BME280;861;48.808;9.006;2023-02-20T15:13:45;97710.66;;;18.72;34.12
41703;BME280;861;48.808;9.006;2023-02-20T15:16:21;97712.94;;;18.54;34.35
41703;BME280;861;48.808;9.006;2023-02-20T15:18:51;97719.84;;;18.65;33.35
41703;BME280;861;48.808;9.006;2023-02-20T15:21:39;97716.84;;;18.56;33.61
41703;BME280;861;48.808;9.006;2023-02-20T15:24:32;97712.28;;;18.46;35.31
41703;BME280;861;48.808;9.006;2023-02-20T15:27:20;97708.16;;;18.58;34.95
41703;BME280;861;48.808;9.006;2023-02-20T15:30:16;97709.94;;;18.68;35.29
41703;BME280;861;48.808;9.006;2023-02-20T15:32:51;97710.13;;;18.57;33.74
41703;BME280;861;48.808;9.006;2023-02-20T15:35:26;97709.22;;;18.41;34.32
41703;BME280;861;48.808;9.006;2023-02-20T15:38:01;97700.69;;;18.08;34.65
41703;BME280;861;48.808;9.006;2023-02-20T15:40:33;97715.31;;;18.05;35.44
41703;BME280;861;48.808;9.006;2023-02-20T15:42:59;97704.22;;;18.09;35.56
41703;BME280;861;48.808;9.006;2023-02-20T15:45:29;97703.13;;;18.03;36.40
41703;BME280;861;48.808;9.006;2023-02-20T15:47:57;97697.94;;;18.08;37.36